Time;durP1;ratioP1;P1;durP2;ratioP2;P2;SDS_P1;SDS_P2;PMS_P1;PMS_P2;Temp;Humidity;BMP_temperature;BMP_pressure;BME280_temperature;BME280_humidity;BME280_pressure;Samples;Min_cycle;Max_cycle;Signal;HPM_P1;HPM_P2
2021/07/21 00:01:35;;;;;;;18.35;10.93;;;;;;;;;;5023641;28;20354;-46
2021/07/21 00:04:01;;;;;;;44.53;29.95;;;;;;;;;;5023117;28;20057;-45
2021/07/21 00:06:27;;;;;;;36.75;20.30;;;;;;;;;;5024015;28;20339;-45
2021/07/21 00:08:53;;;;;;;31.48;20.33;;;;;;;;;;5023211;28;20112;-45
2021/07/21 00:14:13;;;;;;;18.40;12.30;;;;;;;;;;5022771;28;20075;-46
2021/07/21 00:16:42;;;;;;;46.78;34.65;;;;;;;;;;5023424;28;20072;-45
2021/07/21 00:21:53;;;;;;;38.85;22.85;;;;;;;;;;5035166;28;20032;-45
2021/07/21 00:24:19;;;;;;;34.47;21.83;;;;;;;;;;5034787;28;20516;-45
2021/07/21 00:26:46;;;;;;;28.92;17.85;;;;;;;;;;5034783;28;20179;-47
2021/07/21 00:29:12;;;;;;;24.83;11.88;;;;;;;;;;5035096;28;20035;-47
2021/07/21 00:31:38;;;;;;;18.50;11.10;;;;;;;;;;5034591;28;20024;-45
2021/07/21 00:34:04;;;;;;;40.67;28.52;;;;;;;;;;5034644;28;20035;-45
2021/07/21 00:36:30;;;;;;;24.63;14.93;;;;;;;;;;5034564;28;20453;-47
2021/07/21 00:38:57;;;;;;;36.45;24.70;;;;;;;;;;5034757;28;20029;-48
2021/07/21 00:41:23;;;;;;;25.63;16.50;;;;;;;;;;5034482;28;20022;-44
2021/07/21 00:43:49;;;;;;;24.85;16.80;;;;;;;;;;5034362;28;20032;-48
2021/07/21 00:46:15;;;;;;;23.60;14.68;;;;;;;;;;5034417;28;20026;-45
2021/07/21 00:48:41;;;;;;;16.35;11.43;;;;;;;;;;5034252;28;20040;-47
2021/07/21 00:51:07;;;;;;;18.95;10.82;;;;;;;;;;5034191;28;20021;-46
2021/07/21 00:53:34;;;;;;;15.93;9.73;;;;;;;;;;5034243;28;20082;-44
2021/07/21 00:56:00;;;;;;;16.60;9.80;;;;;;;;;;5034091;28;20032;-48
2021/07/21 00:58:26;;;;;;;16.85;9.63;;;;;;;;;;5034415;28;20481;-47
2021/07/21 01:00:55;;;;;;;15.63;9.13;;;;;;;;;;5034149;28;20025;-48
2021/07/21 01:03:21;;;;;;;13.73;8.73;;;;;;;;;;5034142;28;20017;-48
2021/07/21 01:05:47;;;;;;;44.78;20.85;;;;;;;;;;5033700;28;20059;-47
2021/07/21 01:08:13;;;;;;;28.17;19.80;;;;;;;;;;5033973;28;20079;-46
2021/07/21 01:10:45;;;;;;;34.13;20.15;;;;;;;;;;5033956;28;20085;-47
2021/07/21 01:13:24;;;;;;;31.65;19.73;;;;;;;;;;5033910;28;20029;-48
2021/07/21 01:15:56;;;;;;;24.08;15.57;;;;;;;;;;5033545;28;20049;-48
2021/07/21 01:18:26;;;;;;;27.10;15.45;;;;;;;;;;5033601;28;20042;-45
2021/07/21 01:20:52;;;;;;;14.98;10.90;;;;;;;;;;5033823;28;20021;-48
2021/07/21 01:23:29;;;;;;;23.25;14.32;;;;;;;;;;5033729;28;20021;-48
2021/07/21 01:25:57;;;;;;;29.20;18.05;;;;;;;;;;5033668;28;20037;-46
2021/07/21 01:28:24;;;;;;;27.45;18.75;;;;;;;;;;5033588;28;20021;-44
2021/07/21 01:30:51;;;;;;;27.25;17.00;;;;;;;;;;5033599;28;20497;-48
2021/07/21 01:33:20;;;;;;;27.85;17.85;;;;;;;;;;5033698;28;20029;-45
2021/07/21 01:35:53;;;;;;;22.35;14.63;;;;;;;;;;5032665;28;20036;-48
2021/07/21 01:38:22;;;;;;;22.17;15.30;;;;;;;;;;5033602;28;20436;-44
2021/07/21 01:40:51;;;;;;;24.60;16.25;;;;;;;;;;5033396;28;20018;-47
2021/07/21 01:43:19;;;;;;;24.17;15.25;;;;;;;;;;5034046;28;20037;-45
2021/07/21 01:45:51;;;;;;;17.70;11.77;;;;;;;;;;5033202;28;20541;-47
2021/07/21 01:48:20;;;;;;;18.67;11.35;;;;;;;;;;5033439;28;20033;-46
2021/07/21 01:50:47;;;;;;;17.20;11.43;;;;;;;;;;5033333;28;20494;-44
2021/07/21 01:53:14;;;;;;;28.00;17.77;;;;;;;;;;5033376;28;20037;-48
2021/07/21 01:55:40;;;;;;;30.48;19.45;;;;;;;;;;5033380;28;20017;-47
2021/07/21 01:58:07;;;;;;;21.40;13.43;;;;;;;;;;5033305;28;20087;-44
2021/07/21 02:00:34;;;;;;;23.35;14.43;;;;;;;;;;5033418;28;20029;-47
2021/07/21 02:03:00;;;;;;;18.67;10.43;;;;;;;;;;5033185;28;20474;-46
2021/07/21 02:05:26;;;;;;;16.52;10.48;;;;;;;;;;5033421;28;20355;-45
2021/07/21 02:07:53;;;;;;;15.32;9.70;;;;;;;;;;5033385;28;20021;-47
2021/07/21 02:10:21;;;;;;;18.00;9.82;;;;;;;;;;5033080;28;20053;-46
2021/07/21 02:12:49;;;;;;;16.48;9.25;;;;;;;;;;5033142;28;20029;-44
2021/07/21 02:15:17;;;;;;;15.75;10.40;;;;;;;;;;5033099;28;20042;-47
2021/07/21 02:17:43;;;;;;;16.52;9.35;;;;;;;;;;5034553;28;20042;-45
2021/07/21 02:20:10;;;;;;;15.07;9.23;;;;;;;;;;5037426;28;20029;-46
2021/07/21 02:22:36;;;;;;;16.75;9.38;;;;;;;;;;5037086;28;20393;-44
2021/07/21 02:25:03;;;;;;;14.73;9.70;;;;;;;;;;5037062;28;20021;-46
2021/07/21 02:27:30;;;;;;;15.98;9.73;;;;;;;;;;5036982;28;20017;-47
2021/07/21 02:29:56;;;;;;;16.77;10.23;;;;;;;;;;5037245;28;20037;-48
2021/07/21 02:32:32;;;;;;;15.90;9.38;;;;;;;;;;5037233;28;20017;-48
2021/07/21 02:34:58;;;;;;;18.08;10.90;;;;;;;;;;5037036;28;20034;-44
2021/07/21 02:37:25;;;;;;;14.93;9.07;;;;;;;;;;5037037;28;20549;-49
2021/07/21 02:39:52;;;;;;;20.50;9.88;;;;;;;;;;5036784;28;20091;-47
2021/07/21 02:42:18;;;;;;;16.77;9.23;;;;;;;;;;5036659;28;20488;-46
2021/07/21 02:44:47;;;;;;;18.33;9.98;;;;;;;;;;5036609;28;20531;-45
2021/07/21 02:47:13;;;;;;;15.68;9.30;;;;;;;;;;5036756;28;20018;-45
2021/07/21 02:49:40;;;;;;;15.95;9.50;;;;;;;;;;5036728;28;20026;-44
2021/07/21 02:52:15;;;;;;;14.35;9.23;;;;;;;;;;5036664;28;20096;-45
2021/07/21 02:55:00;;;;;;;13.75;8.88;;;;;;;;;;5036641;28;20029;-46
2021/07/21 02:57:33;;;;;;;16.60;9.15;;;;;;;;;;5036510;28;20117;-44
2021/07/21 03:00:05;;;;;;;15.15;9.95;;;;;;;;;;5036799;28;20028;-44
2021/07/21 03:02:33;;;;;;;16.98;9.98;;;;;;;;;;5036503;28;20421;-47
2021/07/21 03:04:59;;;;;;;19.02;9.80;;;;;;;;;;5036466;28;20068;-44
2021/07/21 03:07:25;;;;;;;13.98;8.88;;;;;;;;;;5036289;28;20106;-44
2021/07/21 03:09:52;;;;;;;16.70;9.32;;;;;;;;;;5036447;28;20087;-45
2021/07/21 03:12:18;;;;;;;22.00;10.43;;;;;;;;;;5036275;28;20033;-46
2021/07/21 03:14:47;;;;;;;15.45;8.90;;;;;;;;;;5036210;28;20033;-48
2021/07/21 03:17:14;;;;;;;14.05;9.30;;;;;;;;;;5036205;28;20036;-45
2021/07/21 03:19:50;;;;;;;18.10;9.45;;;;;;;;;;5036227;28;20435;-44
2021/07/21 03:22:16;;;;;;;18.27;9.90;;;;;;;;;;5036251;28;20057;-47
2021/07/21 03:24:43;;;;;;;18.08;10.10;;;;;;;;;;5036154;28;20508;-45
2021/07/21 03:27:10;;;;;;;21.30;9.55;;;;;;;;;;5035874;28;20109;-45
2021/07/21 03:29:36;;;;;;;19.10;10.13;;;;;;;;;;5035840;28;20022;-45
2021/07/21 03:32:02;;;;;;;19.55;10.68;;;;;;;;;;5036133;28;20022;-45
2021/07/21 03:34:29;;;;;;;16.85;10.23;;;;;;;;;;5035901;28;20026;-45
2021/07/21 03:36:57;;;;;;;16.23;9.55;;;;;;;;;;5035695;28;20032;-45
2021/07/21 03:39:24;;;;;;;18.35;10.38;;;;;;;;;;5035843;28;20025;-44
2021/07/21 03:41:51;;;;;;;15.98;9.93;;;;;;;;;;5035639;28;20029;-46
2021/07/21 03:44:19;;;;;;;16.67;9.25;;;;;;;;;;5035649;28;20382;-45
2021/07/21 03:46:45;;;;;;;18.80;9.45;;;;;;;;;;5035706;28;20030;-44
2021/07/21 03:49:12;;;;;;;22.40;9.45;;;;;;;;;;5035799;28;20072;-44
2021/07/21 03:51:39;;;;;;;15.60;9.70;;;;;;;;;;5035566;28;20195;-44
2021/07/21 03:54:09;;;;;;;17.80;9.80;;;;;;;;;;5035819;28;20049;-47
2021/07/21 03:56:36;;;;;;;16.10;9.85;;;;;;;;;;5035411;28;20026;-45
2021/07/21 03:59:04;;;;;;;16.48;9.15;;;;;;;;;;5035469;28;20033;-48
2021/07/21 04:01:30;;;;;;;17.17;9.93;;;;;;;;;;5035624;28;20045;-46
2021/07/21 04:03:57;;;;;;;19.20;9.52;;;;;;;;;;5035526;28;20083;-46
2021/07/21 04:06:23;;;;;;;18.23;9.57;;;;;;;;;;5035769;28;20499;-44
2021/07/21 04:08:51;;;;;;;17.67;9.77;;;;;;;;;;5035303;28;20100;-47
2021/07/21 04:11:17;;;;;;;16.50;9.70;;;;;;;;;;5035186;28;20025;-47
2021/07/21 04:13:44;;;;;;;16.35;9.23;;;;;;;;;;5035254;28;20022;-45
2021/07/21 04:16:12;;;;;;;15.32;9.00;;;;;;;;;;5034867;28;20120;-46
2021/07/21 04:18:38;;;;;;;14.48;9.65;;;;;;;;;;5035072;28;20041;-44
2021/07/21 04:21:05;;;;;;;14.70;8.80;;;;;;;;;;5034929;28;20018;-44
2021/07/21 04:23:32;;;;;;;15.75;8.82;;;;;;;;;;5034969;28;20363;-46
2021/07/21 04:25:58;;;;;;;17.48;8.77;;;;;;;;;;5035010;28;20032;-44
2021/07/21 04:28:25;;;;;;;14.43;8.00;;;;;;;;;;5034924;28;20061;-44
2021/07/21 04:30:54;;;;;;;18.33;9.02;;;;;;;;;;5034964;28;20017;-45
2021/07/21 04:33:21;;;;;;;14.38;8.55;;;;;;;;;;5034797;28;20033;-43
2021/07/21 04:35:48;;;;;;;13.75;8.88;;;;;;;;;;5035294;28;20026;-48
2021/07/21 04:38:15;;;;;;;16.80;8.00;;;;;;;;;;5034598;28;20025;-46
2021/07/21 04:40:44;;;;;;;16.05;8.23;;;;;;;;;;5034135;28;20470;-48
2021/07/21 04:43:10;;;;;;;13.60;8.80;;;;;;;;;;5034619;28;20021;-47
2021/07/21 04:45:49;;;;;;;13.02;8.05;;;;;;;;;;5034463;28;20093;-46
2021/07/21 04:48:15;;;;;;;13.05;8.27;;;;;;;;;;5034379;28;20112;-47
2021/07/21 04:50:42;;;;;;;18.13;10.13;;;;;;;;;;5034281;28;20017;-47
2021/07/21 04:53:10;;;;;;;13.65;8.35;;;;;;;;;;5034402;28;20018;-44
2021/07/21 04:55:37;;;;;;;13.65;7.95;;;;;;;;;;5034225;28;20096;-46
2021/07/21 04:58:03;;;;;;;16.58;8.77;;;;;;;;;;5034267;28;20034;-46
2021/07/21 05:00:29;;;;;;;13.73;8.73;;;;;;;;;;5034250;28;20026;-44
2021/07/21 05:02:57;;;;;;;14.23;8.98;;;;;;;;;;5034008;28;20044;-46
2021/07/21 05:05:24;;;;;;;13.50;8.30;;;;;;;;;;5034258;28;20096;-48
2021/07/21 05:07:50;;;;;;;14.73;9.70;;;;;;;;;;5034282;28;20064;-45
2021/07/21 05:10:16;;;;;;;19.95;12.43;;;;;;;;;;5034141;28;20021;-47
2021/07/21 05:12:44;;;;;;;19.75;12.02;;;;;;;;;;5033956;28;20033;-48
2021/07/21 05:15:13;;;;;;;17.42;9.90;;;;;;;;;;5033510;28;20076;-48
2021/07/21 05:17:39;;;;;;;18.52;9.43;;;;;;;;;;5033709;28;20124;-44
2021/07/21 05:20:06;;;;;;;19.45;10.25;;;;;;;;;;5033854;28;20083;-45
2021/07/21 05:22:32;;;;;;;14.48;8.88;;;;;;;;;;5033749;28;20469;-44
2021/07/21 05:24:58;;;;;;;16.35;10.00;;;;;;;;;;5033766;28;20033;-44
2021/07/21 05:27:24;;;;;;;16.92;9.27;;;;;;;;;;5033509;28;20029;-44
2021/07/21 05:29:51;;;;;;;14.43;8.55;;;;;;;;;;5034043;28;20100;-46
2021/07/21 05:32:17;;;;;;;16.00;9.32;;;;;;;;;;5033658;28;20035;-46
2021/07/21 05:34:44;;;;;;;14.65;8.73;;;;;;;;;;5033697;28;20032;-47
2021/07/21 05:37:10;;;;;;;13.93;8.30;;;;;;;;;;5033484;28;20068;-44
2021/07/21 05:39:36;;;;;;;14.20;7.82;;;;;;;;;;5033916;28;20022;-47
2021/07/21 05:42:02;;;;;;;13.65;8.50;;;;;;;;;;5033670;28;20022;-45
2021/07/21 05:44:28;;;;;;;18.80;9.90;;;;;;;;;;5033516;28;20033;-47
2021/07/21 05:46:55;;;;;;;14.45;8.65;;;;;;;;;;5033396;28;20481;-46
2021/07/21 05:49:21;;;;;;;21.48;11.98;;;;;;;;;;5033420;28;20036;-43
2021/07/21 05:51:47;;;;;;;13.18;7.93;;;;;;;;;;5033542;28;20049;-48
2021/07/21 05:54:14;;;;;;;12.45;7.97;;;;;;;;;;5033287;28;20025;-46
2021/07/21 05:56:41;;;;;;;13.05;8.02;;;;;;;;;;5033367;28;20020;-45
2021/07/21 05:59:07;;;;;;;14.68;8.10;;;;;;;;;;5033362;28;20029;-45
2021/07/21 06:01:33;;;;;;;13.68;7.90;;;;;;;;;;5033413;28;20501;-48
2021/07/21 06:03:59;;;;;;;12.07;7.53;;;;;;;;;;5033372;28;20029;-45
2021/07/21 06:06:25;;;;;;;15.50;6.95;;;;;;;;;;5033452;28;20021;-47
2021/07/21 06:08:51;;;;;;;15.18;7.70;;;;;;;;;;5033161;28;20535;-48
2021/07/21 06:11:19;;;;;;;12.48;6.75;;;;;;;;;;5033388;28;20034;-49
2021/07/21 06:13:45;;;;;;;11.13;7.93;;;;;;;;;;5033021;28;20108;-47
2021/07/21 06:16:14;;;;;;;9.32;6.80;;;;;;;;;;5032799;28;20061;-44
2021/07/21 06:18:40;;;;;;;11.30;7.05;;;;;;;;;;5033131;28;20129;-43
2021/07/21 06:21:06;;;;;;;12.15;7.20;;;;;;;;;;5033124;28;20088;-49
2021/07/21 06:23:32;;;;;;;14.35;7.07;;;;;;;;;;5033203;28;20025;-47
2021/07/21 06:25:58;;;;;;;13.23;6.97;;;;;;;;;;5033000;28;20021;-46
2021/07/21 06:28:25;;;;;;;12.88;7.57;;;;;;;;;;5032935;28;20029;-48
2021/07/21 06:30:51;;;;;;;26.95;17.73;;;;;;;;;;5032973;28;20029;-49
2021/07/21 06:33:18;;;;;;;11.70;8.90;;;;;;;;;;5032854;28;20099;-50
2021/07/21 06:35:45;;;;;;;17.30;10.13;;;;;;;;;;5033234;28;20024;-50
2021/07/21 06:38:11;;;;;;;20.02;11.30;;;;;;;;;;5033119;28;20152;-49
2021/07/21 06:40:37;;;;;;;15.73;9.68;;;;;;;;;;5033220;28;20028;-49
2021/07/21 06:43:03;;;;;;;14.23;9.38;;;;;;;;;;5032897;28;20028;-49
2021/07/21 06:45:29;;;;;;;17.05;8.88;;;;;;;;;;5032787;28;20080;-48
2021/07/21 06:47:57;;;;;;;12.32;7.70;;;;;;;;;;5032838;28;20030;-46
2021/07/21 06:50:23;;;;;;;20.92;13.57;;;;;;;;;;5033032;28;20064;-48
2021/07/21 06:52:50;;;;;;;14.43;9.27;;;;;;;;;;5033087;28;20053;-44
2021/07/21 06:55:16;;;;;;;18.85;9.30;;;;;;;;;;5033077;28;20026;-45
2021/07/21 06:57:42;;;;;;;16.17;10.20;;;;;;;;;;5032902;28;20061;-46
2021/07/21 07:00:10;;;;;;;12.25;8.63;;;;;;;;;;5032905;28;20029;-45
2021/07/21 07:02:36;;;;;;;21.83;10.13;;;;;;;;;;5032899;28;20030;-44
2021/07/21 07:05:03;;;;;;;16.27;9.38;;;;;;;;;;5036351;28;20115;-45
2021/07/21 07:07:29;;;;;;;18.02;11.93;;;;;;;;;;5036265;28;20026;-45
2021/07/21 07:09:55;;;;;;;13.55;9.73;;;;;;;;;;5036519;28;20022;-43
2021/07/21 07:12:22;;;;;;;61.85;40.13;;;;;;;;;;5036121;28;20026;-46
2021/07/21 07:14:48;;;;;;;18.58;11.18;;;;;;;;;;5036128;28;20040;-45
2021/07/21 07:17:14;;;;;;;13.05;7.90;;;;;;;;;;5036040;28;20033;-46
2021/07/21 07:19:40;;;;;;;20.65;9.90;;;;;;;;;;5036016;28;20109;-49
2021/07/21 07:22:08;;;;;;;15.60;9.65;;;;;;;;;;5036280;28;20055;-47
2021/07/21 07:24:34;;;;;;;17.98;8.20;;;;;;;;;;5036087;28;20037;-47
2021/07/21 07:27:01;;;;;;;19.60;10.30;;;;;;;;;;5035828;28;20112;-44
2021/07/21 07:29:27;;;;;;;11.50;7.60;;;;;;;;;;5035935;28;20025;-46
2021/07/21 07:31:53;;;;;;;14.82;10.27;;;;;;;;;;5036056;28;20045;-46
2021/07/21 07:34:20;;;;;;;13.52;7.60;;;;;;;;;;5036558;28;20092;-46
2021/07/21 07:36:46;;;;;;;16.05;9.93;;;;;;;;;;5035850;28;20018;-46
2021/07/21 07:39:12;;;;;;;19.17;12.40;;;;;;;;;;5035811;28;20429;-47
2021/07/21 07:41:41;;;;;;;12.23;8.30;;;;;;;;;;5035887;28;20450;-46
2021/07/21 07:44:07;;;;;;;16.27;10.02;;;;;;;;;;5035567;28;20026;-46
2021/07/21 07:46:34;;;;;;;25.13;14.40;;;;;;;;;;5035750;28;20029;-47
2021/07/21 07:49:00;;;;;;;15.35;8.88;;;;;;;;;;5035499;28;20030;-49
2021/07/21 07:51:29;;;;;;;17.70;8.88;;;;;;;;;;5035736;28;20025;-47
2021/07/21 07:53:55;;;;;;;20.63;12.73;;;;;;;;;;5035426;28;20037;-47
2021/07/21 07:56:21;;;;;;;12.65;7.45;;;;;;;;;;5035421;28;20462;-46
2021/07/21 07:58:47;;;;;;;20.73;14.88;;;;;;;;;;5035554;28;20030;-46
2021/07/21 08:01:13;;;;;;;11.23;7.65;;;;;;;;;;5035348;28;20465;-49
2021/07/21 08:03:40;;;;;;;15.80;9.20;;;;;;;;;;5035476;28;20032;-46
2021/07/21 08:06:08;;;;;;;12.98;8.55;;;;;;;;;;5035512;28;20022;-48
2021/07/21 08:08:34;;;;;;;17.13;11.10;;;;;;;;;;5035506;28;20052;-48
2021/07/21 08:11:00;;;;;;;15.98;11.10;;;;;;;;;;5035277;28;20050;-48
2021/07/21 08:13:28;;;;;;;12.43;7.57;;;;;;;;;;5035084;28;20026;-49
2021/07/21 08:15:54;;;;;;;9.48;7.30;;;;;;;;;;5033707;28;20508;-47
2021/07/21 08:18:20;;;;;;;18.55;12.15;;;;;;;;;;5034850;28;20046;-48
2021/07/21 08:20:46;;;;;;;39.25;16.75;;;;;;;;;;5035220;28;20441;-48
2021/07/21 08:23:13;;;;;;;18.80;11.43;;;;;;;;;;5035093;28;20026;-48
2021/07/21 08:25:39;;;;;;;10.95;7.88;;;;;;;;;;5035107;28;20032;-49
2021/07/21 08:28:05;;;;;;;13.35;9.27;;;;;;;;;;5034874;28;20104;-44
2021/07/21 08:30:31;;;;;;;12.07;9.00;;;;;;;;;;5034811;28;20027;-47
2021/07/21 08:32:58;;;;;;;13.40;8.88;;;;;;;;;;5034871;28;20091;-48
2021/07/21 08:35:25;;;;;;;17.33;9.65;;;;;;;;;;5038979;28;20048;-44
2021/07/21 08:37:51;;;;;;;13.10;8.98;;;;;;;;;;5054404;28;20033;-44
2021/07/21 08:40:19;;;;;;;20.95;12.38;;;;;;;;;;5054772;28;20373;-45
2021/07/21 08:42:45;;;;;;;14.32;9.20;;;;;;;;;;5054211;28;20025;-42
2021/07/21 08:45:12;;;;;;;18.42;9.70;;;;;;;;;;5054254;28;20104;-42
2021/07/21 08:47:39;;;;;;;31.67;19.40;;;;;;;;;;5050709;28;20397;-45
2021/07/21 08:50:05;;;;;;;18.10;12.32;;;;;;;;;;5052989;28;20031;-46
2021/07/21 08:52:32;;;;;;;69.22;45.13;;;;;;;;;;5052252;28;20025;-47
2021/07/21 08:55:01;;;;;;;41.10;23.50;;;;;;;;;;5053320;28;20535;-45
2021/07/21 08:57:32;;;;;;;19.58;11.45;;;;;;;;;;5053134;28;20477;-46
2021/07/21 08:59:59;;;;;;;17.27;10.82;;;;;;;;;;5051791;28;20028;-46
2021/07/21 09:02:26;;;;;;;22.30;13.68;;;;;;;;;;5053513;28;20511;-43
2021/07/21 09:04:54;;;;;;;21.80;12.48;;;;;;;;;;5053562;28;20469;-45
2021/07/21 09:07:20;;;;;;;13.75;7.88;;;;;;;;;;5053152;28;20024;-46
2021/07/21 09:09:46;;;;;;;13.50;9.13;;;;;;;;;;5034862;28;20025;-45
2021/07/21 09:12:13;;;;;;;23.65;14.45;;;;;;;;;;5033678;28;20495;-46
2021/07/21 09:14:39;;;;;;;18.55;10.05;;;;;;;;;;5033430;28;20036;-44
2021/07/21 09:17:05;;;;;;;13.48;8.23;;;;;;;;;;5033825;28;20034;-46
2021/07/21 09:19:32;;;;;;;15.45;7.70;;;;;;;;;;5033979;28;20037;-44
2021/07/21 09:22:15;;;;;;;19.27;12.05;;;;;;;;;;5033802;28;20036;-47
2021/07/21 09:24:41;;;;;;;47.63;31.75;;;;;;;;;;5033740;28;20104;-45
2021/07/21 09:27:07;;;;;;;33.90;23.27;;;;;;;;;;5033387;28;20053;-48
2021/07/21 09:29:34;;;;;;;19.67;13.25;;;;;;;;;;5033737;28;20117;-46
2021/07/21 09:32:01;;;;;;;15.07;10.32;;;;;;;;;;5033480;28;20096;-45
2021/07/21 09:34:28;;;;;;;18.80;9.63;;;;;;;;;;5033729;28;20029;-47
2021/07/21 09:37:05;;;;;;;10.02;7.50;;;;;;;;;;5033704;28;20374;-45
2021/07/21 09:39:32;;;;;;;17.48;7.53;;;;;;;;;;5050732;28;20032;-45
2021/07/21 09:41:58;;;;;;;15.48;8.20;;;;;;;;;;5053292;28;20575;-46
2021/07/21 09:44:32;;;;;;;13.23;7.10;;;;;;;;;;5051984;28;20044;-47
2021/07/21 09:47:10;;;;;;;12.70;7.68;;;;;;;;;;5053385;28;20033;-44
2021/07/21 09:49:36;;;;;;;11.00;7.13;;;;;;;;;;5053528;28;20024;-46
2021/07/21 09:52:14;;;;;;;12.05;7.22;;;;;;;;;;5053305;28;20025;-44
2021/07/21 09:54:40;;;;;;;11.63;7.57;;;;;;;;;;5053101;28;20028;-46
2021/07/21 09:57:13;;;;;;;10.15;7.10;;;;;;;;;;5052925;28;20025;-46
2021/07/21 09:59:39;;;;;;;11.13;7.45;;;;;;;;;;5053190;28;20029;-44
2021/07/21 10:02:15;;;;;;;12.85;7.25;;;;;;;;;;5053203;28;20017;-44
2021/07/21 10:04:45;;;;;;;16.50;12.75;;;;;;;;;;5053144;28;20161;-43
2021/07/21 10:10:15;;;;;;;33.42;25.83;;;;;;;;;;5031091;28;20036;-45
2021/07/21 10:12:41;;;;;;;;;;;;;;;;;;5031267;28;20053;-44
2021/07/21 10:15:07;;;;;;;18.63;10.05;;;;;;;;;;5030813;28;19912;-44
2021/07/21 10:17:33;;;;;;;20.90;11.40;;;;;;;;;;5030957;28;20124;-45
2021/07/21 10:19:59;;;;;;;16.20;10.13;;;;;;;;;;5030913;28;20085;-44
2021/07/21 10:22:26;;;;;;;12.85;7.63;;;;;;;;;;5030824;28;20543;-45
2021/07/21 10:24:53;;;;;;;15.38;7.32;;;;;;;;;;5031021;28;20030;-42
2021/07/21 10:27:19;;;;;;;38.55;25.00;;;;;;;;;;5030873;28;20052;-45
2021/07/21 10:29:46;;;;;;;40.47;29.30;;;;;;;;;;5030856;28;20022;-44
2021/07/21 10:32:16;;;;;;;19.63;11.68;;;;;;;;;;5030876;28;20033;-44
2021/07/21 10:34:42;;;;;;;15.98;8.70;;;;;;;;;;5030825;28;20366;-44
2021/07/21 10:37:09;;;;;;;12.02;7.80;;;;;;;;;;5030731;28;20246;-43
2021/07/21 10:39:36;;;;;;;11.43;7.68;;;;;;;;;;5033384;28;20109;-43
2021/07/21 10:42:03;;;;;;;23.63;12.35;;;;;;;;;;5034708;28;20075;-45
2021/07/21 10:44:29;;;;;;;37.22;22.17;;;;;;;;;;5034507;28;20049;-43
2021/07/21 10:46:55;;;;;;;20.42;12.48;;;;;;;;;;5035704;28;20041;-46
2021/07/21 10:49:36;;;;;;;17.58;12.18;;;;;;;;;;5036764;28;20033;-43
2021/07/21 11:00:17;;;;;;;17.27;9.90;;;;;;;;;;5036445;28;20035;-43
2021/07/21 11:02:44;;;;;;;13.57;9.10;;;;;;;;;;5036456;28;20022;-45
2021/07/21 11:05:29;;;;;;;10.10;7.90;;;;;;;;;;5036386;28;20025;-44
2021/07/21 11:07:56;;;;;;;10.00;7.57;;;;;;;;;;5040219;28;20028;-43
2021/07/21 11:10:38;;;;;;;14.98;7.72;;;;;;;;;;5056199;28;20017;-45
2021/07/21 11:13:06;;;;;;;10.25;7.10;;;;;;;;;;5056294;28;20086;-44
2021/07/21 11:15:42;;;;;;;10.10;7.40;;;;;;;;;;5055721;28;20051;-45
2021/07/21 11:18:24;;;;;;;14.00;9.60;;;;;;;;;;5055988;28;20029;-45
2021/07/21 11:21:00;;;;;;;21.52;13.40;;;;;;;;;;5055953;28;20034;-44
2021/07/21 11:23:44;;;;;;;38.35;29.83;;;;;;;;;;5056177;28;20017;-45
2021/07/21 11:26:28;;;;;;;19.85;15.82;;;;;;;;;;5055897;28;20024;-47
2021/07/21 11:28:55;;;;;;;18.50;11.45;;;;;;;;;;5055868;28;20473;-47
2021/07/21 11:31:46;;;;;;;14.73;8.18;;;;;;;;;;5055918;28;20029;-47
2021/07/21 11:34:12;;;;;;;11.68;7.55;;;;;;;;;;5055904;28;20078;-46
2021/07/21 11:36:46;;;;;;;13.18;9.25;;;;;;;;;;5055861;28;20032;-44
2021/07/21 11:39:31;;;;;;;12.60;8.90;;;;;;;;;;5055455;28;20476;-43
2021/07/21 11:41:57;;;;;;;12.52;8.02;;;;;;;;;;5055460;28;20100;-46
2021/07/21 11:44:23;;;;;;;14.75;9.57;;;;;;;;;;5055534;28;20504;-46
2021/07/21 11:46:50;;;;;;;16.77;10.43;;;;;;;;;;5055396;28;20588;-43
2021/07/21 11:49:24;;;;;;;10.57;7.60;;;;;;;;;;5055336;28;20028;-46
2021/07/21 11:51:54;;;;;;;17.48;11.13;;;;;;;;;;5055447;28;20108;-43
2021/07/21 11:54:21;;;;;;;15.45;10.98;;;;;;;;;;5055415;28;20032;-43
2021/07/21 11:56:48;;;;;;;13.77;10.82;;;;;;;;;;5037471;28;20028;-45
2021/07/21 11:59:14;;;;;;;15.30;10.35;;;;;;;;;;5036941;28;20041;-43
2021/07/21 12:01:40;;;;;;;14.20;10.75;;;;;;;;;;5037113;28;20021;-47
2021/07/21 12:04:06;;;;;;;11.73;9.18;;;;;;;;;;5035780;28;20040;-44
2021/07/21 12:06:32;;;;;;;11.98;8.73;;;;;;;;;;5035188;28;20137;-45
2021/07/21 12:08:59;;;;;;;16.20;10.80;;;;;;;;;;5045989;28;20025;-44
2021/07/21 12:11:25;;;;;;;10.90;7.47;;;;;;;;;;5053698;28;20024;-47
2021/07/21 12:13:58;;;;;;;17.52;12.30;;;;;;;;;;5053248;28;20074;-44
2021/07/21 12:16:25;;;;;;;12.00;9.63;;;;;;;;;;5053470;28;20045;-42
2021/07/21 12:18:59;;;;;;;10.68;8.13;;;;;;;;;;5053584;28;20025;-44
2021/07/21 12:21:27;;;;;;;16.05;7.50;;;;;;;;;;5053454;28;20017;-46
2021/07/21 12:23:57;;;;;;;10.40;7.20;;;;;;;;;;5053304;28;20029;-46
2021/07/21 12:26:23;;;;;;;25.23;16.60;;;;;;;;;;5053247;28;21083;-45
2021/07/21 12:28:56;;;;;;;29.65;14.95;;;;;;;;;;5053265;28;20074;-44
2021/07/21 12:31:26;;;;;;;22.17;16.30;;;;;;;;;;5051568;28;20104;-47
2021/07/21 12:33:52;;;;;;;17.90;10.98;;;;;;;;;;5053073;28;20155;-45
2021/07/21 12:36:19;;;;;;;14.63;9.90;;;;;;;;;;5053227;28;20060;-43
2021/07/21 12:38:45;;;;;;;12.98;8.18;;;;;;;;;;5053020;28;20037;-44
2021/07/21 12:41:11;;;;;;;10.45;6.82;;;;;;;;;;5053088;28;20029;-44
2021/07/21 12:43:37;;;;;;;11.68;7.95;;;;;;;;;;5052979;28;20057;-46
2021/07/21 12:46:14;;;;;;;10.00;6.50;;;;;;;;;;5052912;28;20028;-46
2021/07/21 12:48:41;;;;;;;15.20;10.77;;;;;;;;;;5034176;28;20148;-47
2021/07/21 12:51:07;;;;;;;22.80;14.25;;;;;;;;;;5034262;28;20037;-47
2021/07/21 12:53:33;;;;;;;18.67;13.13;;;;;;;;;;5034388;28;20022;-47
2021/07/21 12:55:59;;;;;;;21.80;15.27;;;;;;;;;;5038947;28;20029;-45
2021/07/21 12:58:26;;;;;;;15.40;11.30;;;;;;;;;;5052436;28;20126;-43
2021/07/21 13:00:55;;;;;;;11.48;8.70;;;;;;;;;;5052047;28;20029;-47
2021/07/21 13:03:23;;;;;;;22.63;17.80;;;;;;;;;;5053949;28;20112;-46
2021/07/21 13:05:50;;;;;;;47.17;33.83;;;;;;;;;;5054361;28;20032;-43
2021/07/21 13:08:25;;;;;;;30.58;24.55;;;;;;;;;;5053752;28;20090;-46
2021/07/21 13:11:01;;;;;;;16.45;11.05;;;;;;;;;;5054102;28;20025;-47
2021/07/21 13:13:32;;;;;;;25.88;12.95;;;;;;;;;;5050398;28;20017;-47
2021/07/21 13:16:03;;;;;;;13.57;8.00;;;;;;;;;;5033937;28;20045;-44
2021/07/21 13:18:50;;;;;;;12.30;7.43;;;;;;;;;;5033687;28;20041;-46
2021/07/21 13:21:26;;;;;;;11.20;7.38;;;;;;;;;;5032711;28;20026;-47
2021/07/21 13:23:54;;;;;;;17.05;7.50;;;;;;;;;;5033950;28;20385;-44
2021/07/21 13:26:20;;;;;;;62.35;28.02;;;;;;;;;;5033859;28;20022;-44
2021/07/21 13:28:53;;;;;;;25.77;18.75;;;;;;;;;;5033489;28;20500;-46
2021/07/21 13:31:21;;;;;;;29.33;17.30;;;;;;;;;;5033476;28;20378;-46
2021/07/21 13:33:49;;;;;;;42.35;26.00;;;;;;;;;;5033802;28;20105;-48
2021/07/21 13:36:16;;;;;;;26.90;15.85;;;;;;;;;;5033684;28;20017;-46
2021/07/21 13:38:53;;;;;;;26.50;13.80;;;;;;;;;;5033356;28;20036;-43
2021/07/21 13:41:28;;;;;;;29.92;13.35;;;;;;;;;;5033404;28;20025;-44
2021/07/21 13:43:55;;;;;;;19.95;10.02;;;;;;;;;;5040058;28;20033;-44
2021/07/21 13:46:23;;;;;;;81.95;47.03;;;;;;;;;;5051653;28;20392;-45
2021/07/21 13:48:56;;;;;;;43.75;26.50;;;;;;;;;;5053173;28;20025;-43
2021/07/21 13:51:27;;;;;;;75.13;42.53;;;;;;;;;;5053355;28;20028;-47
2021/07/21 13:53:53;;;;;;;93.40;52.42;;;;;;;;;;5053010;28;20036;-47
2021/07/21 13:56:19;;;;;;;94.72;44.25;;;;;;;;;;5053094;28;20019;-46
2021/07/21 13:58:46;;;;;;;57.75;29.23;;;;;;;;;;5052673;28;20032;-42
2021/07/21 14:01:12;;;;;;;22.25;12.65;;;;;;;;;;5034671;28;20366;-43
2021/07/21 14:03:45;;;;;;;45.47;18.58;;;;;;;;;;5017912;28;20493;-43
2021/07/21 14:06:12;;;;;;;32.05;13.32;;;;;;;;;;5018126;28;20555;-42
2021/07/21 14:08:38;;;;;;;37.60;14.32;;;;;;;;;;5018353;28;20106;-43
2021/07/21 14:11:04;;;;;;;12.32;7.60;;;;;;;;;;5017334;28;20745;-43
2021/07/21 14:13:30;;;;;;;12.02;7.57;;;;;;;;;;5019164;28;20041;-42
2021/07/21 14:15:58;;;;;;;12.93;7.63;;;;;;;;;;5021639;28;20045;-43
2021/07/21 14:18:26;;;;;;;11.38;7.18;;;;;;;;;;5021704;28;20065;-42
2021/07/21 14:20:52;;;;;;;9.15;6.38;;;;;;;;;;5021813;28;20030;-43
2021/07/21 14:23:18;;;;;;;8.18;6.50;;;;;;;;;;5021869;28;20029;-42
2021/07/21 14:25:44;;;;;;;8.73;5.80;;;;;;;;;;5021727;28;20029;-42
2021/07/21 14:28:10;;;;;;;10.88;6.85;;;;;;;;;;5021836;28;20021;-45
2021/07/21 14:30:37;;;;;;;14.40;7.00;;;;;;;;;;5022019;28;20029;-45
2021/07/21 14:33:03;;;;;;;18.35;14.60;;;;;;;;;;5021422;28;20057;-45
2021/07/21 14:35:29;;;;;;;59.25;50.17;;;;;;;;;;5021768;28;20304;-47
2021/07/21 14:37:55;;;;;;;23.38;17.58;;;;;;;;;;5021498;28;20029;-42
2021/07/21 14:40:21;;;;;;;37.60;27.05;;;;;;;;;;5021523;28;20022;-44
2021/07/21 14:42:48;;;;;;;25.00;19.05;;;;;;;;;;5021248;28;20044;-43
2021/07/21 14:45:14;;;;;;;22.98;17.00;;;;;;;;;;5021608;28;20072;-43